createdAt,value
2023-02-22T00:00:48.246Z,5.40
2023-02-22T00:03:27.644Z,5.10
2023-02-22T00:05:55.675Z,4.65
2023-02-22T00:08:23.196Z,6.03
2023-02-22T00:10:52.952Z,4.68
2023-02-22T00:13:19.860Z,4.53
2023-02-22T00:15:46.328Z,4.40
2023-02-22T00:18:13.741Z,4.00
2023-02-22T00:20:40.581Z,3.88
2023-02-22T00:23:08.301Z,3.38
2023-02-22T00:25:35.154Z,4.15
2023-02-22T00:28:01.802Z,4.25
2023-02-22T00:30:29.777Z,4.35
2023-02-22T00:32:56.774Z,3.90
2023-02-22T00:35:25.025Z,5.88
2023-02-22T00:37:52.243Z,3.55
2023-02-22T00:40:20.620Z,3.90
2023-02-22T00:42:47.182Z,4.13
2023-02-22T00:45:15.818Z,4.22
2023-02-22T00:47:42.320Z,4.57
2023-02-22T00:50:10.141Z,3.92
2023-02-22T00:52:37.305Z,5.32
2023-02-22T00:55:06.085Z,5.47
2023-02-22T00:57:35.188Z,3.60
2023-02-22T01:00:12.003Z,5.57
2023-02-22T01:02:39.367Z,5.97
2023-02-22T01:05:07.326Z,3.08
2023-02-22T01:07:34.763Z,3.85
2023-02-22T01:10:01.896Z,3.90
2023-02-22T01:12:29.218Z,3.88
2023-02-22T01:14:57.046Z,4.28
2023-02-22T01:17:27.116Z,3.85
2023-02-22T01:19:54.112Z,4.65
2023-02-22T01:22:21.431Z,3.33
2023-02-22T01:24:48.805Z,5.78
2023-02-22T01:27:15.396Z,3.45
2023-02-22T01:29:42.027Z,3.78
2023-02-22T01:32:08.864Z,4.82
2023-02-22T01:34:35.385Z,4.13
2023-02-22T01:37:01.845Z,5.60
2023-02-22T01:39:28.324Z,5.13
2023-02-22T01:41:54.786Z,5.13
2023-02-22T01:44:27.819Z,5.38
2023-02-22T01:46:55.125Z,7.30
2023-02-22T01:49:21.983Z,6.45
2023-02-22T01:51:50.478Z,6.15
2023-02-22T01:54:21.712Z,7.63
2023-02-22T01:57:00.962Z,6.90
2023-02-22T01:59:29.729Z,6.05
2023-02-22T02:01:56.225Z,6.97
2023-02-22T02:04:25.688Z,6.85
2023-02-22T02:06:52.970Z,7.20
2023-02-22T02:09:40.078Z,7.53
2023-02-22T02:12:08.496Z,5.75
2023-02-22T02:14:40.389Z,7.88
2023-02-22T02:17:10.930Z,5.57
2023-02-22T02:19:45.431Z,6.15
2023-02-22T02:22:30.725Z,7.85
2023-02-22T02:25:05.236Z,5.88
2023-02-22T02:27:50.364Z,6.28
2023-02-22T02:30:45.981Z,8.18
2023-02-22T02:33:19.846Z,8.35
2023-02-22T02:38:25.077Z,7.20
2023-02-22T02:40:55.323Z,6.15
2023-02-22T02:43:29.101Z,6.80
2023-02-22T02:45:58.276Z,6.25
2023-02-22T02:48:27.010Z,6.43
2023-02-22T02:50:55.481Z,5.97
2023-02-22T02:53:25.485Z,5.97
2023-02-22T02:55:51.926Z,6.75
2023-02-22T02:58:22.949Z,5.93
2023-02-22T03:00:51.252Z,6.10
2023-02-22T03:03:37.502Z,5.40
2023-02-22T03:06:10.269Z,8.82
2023-02-22T03:09:06.381Z,6.32
2023-02-22T03:11:37.840Z,5.20
2023-02-22T03:14:21.070Z,7.65
2023-02-22T03:16:50.498Z,6.77
2023-02-22T03:19:23.074Z,6.22
2023-02-22T03:21:58.439Z,6.30
2023-02-22T03:24:31.028Z,5.68
2023-02-22T03:27:02.885Z,5.65
2023-02-22T03:29:35.625Z,5.75
2023-02-22T03:32:04.586Z,6.32
2023-02-22T03:34:35.702Z,8.02
2023-02-22T03:37:14.518Z,5.32
2023-02-22T03:39:42.052Z,4.15
2023-02-22T03:42:28.754Z,2.58
2023-02-22T03:44:58.014Z,0.65
2023-02-22T03:47:42.047Z,0.38
2023-02-22T03:52:35.697Z,0.20
2023-02-22T03:55:02.767Z,0.20
2023-02-22T03:57:32.850Z,0.88
2023-02-22T03:59:59.442Z,0.20
2023-02-22T04:02:26.012Z,0.10
2023-02-22T04:04:52.588Z,0.22
2023-02-22T04:07:19.776Z,0.32
2023-02-22T04:09:46.804Z,0.95
2023-02-22T04:12:13.390Z,1.67
2023-02-22T04:14:39.828Z,0.20
2023-02-22T04:17:06.307Z,0.20
2023-02-22T04:19:32.758Z,0.57
2023-02-22T04:21:59.211Z,1.80
2023-02-22T04:24:25.795Z,0.20
2023-02-22T04:26:52.998Z,0.30
2023-02-22T04:29:19.500Z,3.35
2023-02-22T04:31:46.001Z,0.80
2023-02-22T04:34:12.517Z,0.22
2023-02-22T04:36:38.973Z,2.05
2023-02-22T04:39:05.498Z,1.38
2023-02-22T04:41:31.982Z,0.60
2023-02-22T04:43:58.462Z,0.85
2023-02-22T04:46:24.972Z,1.00
2023-02-22T04:48:51.510Z,0.32
2023-02-22T04:51:19.920Z,0.30
2023-02-22T04:53:46.458Z,0.25
2023-02-22T04:56:12.913Z,0.70
2023-02-22T04:58:39.464Z,0.63
2023-02-22T05:01:05.928Z,0.47
2023-02-22T05:03:32.385Z,0.32
2023-02-22T05:05:58.997Z,0.65
2023-02-22T05:08:25.468Z,0.82
2023-02-22T05:10:51.914Z,0.22
2023-02-22T05:13:18.550Z,0.30
2023-02-22T05:15:45.155Z,0.50
2023-02-22T05:18:11.619Z,0.22
2023-02-22T05:20:38.362Z,1.55
2023-02-22T05:23:05.643Z,1.55
2023-02-22T05:25:33.336Z,0.20
2023-02-22T05:28:04.723Z,0.20
2023-02-22T05:30:32.690Z,0.30
2023-02-22T05:32:59.594Z,0.30
2023-02-22T05:35:26.549Z,0.20
2023-02-22T05:37:53.020Z,0.30
2023-02-22T05:40:20.915Z,0.20
2023-02-22T05:42:49.054Z,0.55
2023-02-22T05:45:16.295Z,0.52
2023-02-22T05:47:42.816Z,0.30
2023-02-22T05:50:09.748Z,0.30
2023-02-22T05:52:36.252Z,0.30
2023-02-22T05:55:02.791Z,0.95
2023-02-22T05:57:29.242Z,0.80
2023-02-22T05:59:55.738Z,0.30
2023-02-22T06:02:22.198Z,1.45
2023-02-22T06:04:48.645Z,0.70
2023-02-22T06:07:15.188Z,1.10
2023-02-22T06:09:41.676Z,2.67
2023-02-22T06:12:08.637Z,0.32
2023-02-22T06:14:35.336Z,0.93
2023-02-22T06:17:02.088Z,0.30
2023-02-22T06:19:28.549Z,2.22
2023-02-22T06:21:56.138Z,0.45
2023-02-22T06:24:22.910Z,0.40
2023-02-22T06:26:57.014Z,0.65
2023-02-22T06:29:24.648Z,0.55
2023-02-22T06:31:51.295Z,1.58
2023-02-22T06:34:18.156Z,0.40
2023-02-22T06:36:44.925Z,0.40
2023-02-22T06:39:11.408Z,0.68
2023-02-22T06:41:38.454Z,0.22
2023-02-22T06:44:05.641Z,0.47
2023-02-22T06:46:32.593Z,0.25
2023-02-22T06:49:01.878Z,1.63
2023-02-22T06:51:28.952Z,1.10
2023-02-22T06:53:55.430Z,1.05
2023-02-22T06:56:21.931Z,0.30
2023-02-22T06:58:49.498Z,0.40
2023-02-22T07:01:16.579Z,1.20
2023-02-22T07:03:43.408Z,0.32
2023-02-22T07:06:10.858Z,1.10
2023-02-22T07:08:37.574Z,0.80
2023-02-22T07:11:04.137Z,2.95
2023-02-22T07:13:30.634Z,3.30
2023-02-22T07:15:57.104Z,2.65
2023-02-22T07:18:24.204Z,1.23
2023-02-22T07:20:50.734Z,0.85
2023-02-22T07:23:17.323Z,2.97
2023-02-22T07:25:44.228Z,2.35
2023-02-22T07:28:11.118Z,2.42
2023-02-22T07:30:37.936Z,2.88
2023-02-22T07:33:05.680Z,2.83
2023-02-22T07:35:39.893Z,1.08
2023-02-22T07:38:08.209Z,5.15
2023-02-22T07:40:36.629Z,5.05
2023-02-22T07:43:13.961Z,0.80
2023-02-22T07:45:40.509Z,1.77
2023-02-22T07:48:07.507Z,0.60
2023-02-22T07:50:34.909Z,0.88
2023-02-22T07:53:02.818Z,3.17
2023-02-22T07:55:30.062Z,0.98
2023-02-22T07:58:00.987Z,1.00
2023-02-22T08:00:37.636Z,1.17
2023-02-22T08:03:05.435Z,3.15
2023-02-22T08:05:32.542Z,1.45
2023-02-22T08:08:00.523Z,3.40
2023-02-22T08:10:27.346Z,0.63
2023-02-22T08:12:54.158Z,1.25
2023-02-22T08:15:22.633Z,1.70
2023-02-22T08:17:49.079Z,0.88
2023-02-22T08:20:15.653Z,3.70
2023-02-22T08:22:45.407Z,2.97
2023-02-22T08:25:12.748Z,1.48
2023-02-22T08:27:39.222Z,1.75
2023-02-22T08:30:06.239Z,2.97
2023-02-22T08:32:32.940Z,1.83
2023-02-22T08:34:59.601Z,5.93
2023-02-22T08:37:26.058Z,2.08
2023-02-22T08:39:53.151Z,1.48
2023-02-22T08:42:19.665Z,1.40
2023-02-22T08:44:46.184Z,2.22
2023-02-22T08:47:12.672Z,4.30
2023-02-22T08:49:39.161Z,1.73
2023-02-22T08:52:05.621Z,0.45
2023-02-22T08:54:32.099Z,0.40
2023-02-22T08:56:58.615Z,3.75
2023-02-22T08:59:25.141Z,1.73
2023-02-22T09:01:51.730Z,3.83
2023-02-22T09:04:18.214Z,2.45
2023-02-22T09:06:48.368Z,1.95
2023-02-22T09:09:14.899Z,1.85
2023-02-22T09:11:41.369Z,3.28
2023-02-22T09:14:07.812Z,1.30
2023-02-22T09:16:34.326Z,1.30
2023-02-22T09:19:00.893Z,2.42
2023-02-22T09:21:27.337Z,2.00
2023-02-22T09:23:54.808Z,3.28
2023-02-22T09:26:23.626Z,3.20
2023-02-22T09:28:50.431Z,1.05
2023-02-22T09:31:17.389Z,4.45
2023-02-22T09:33:47.122Z,3.70
2023-02-22T09:36:14.195Z,4.50
2023-02-22T09:38:40.942Z,3.38
2023-02-22T09:41:12.409Z,5.10
2023-02-22T09:43:42.776Z,2.97
2023-02-22T09:46:27.484Z,1.92
2023-02-22T09:49:14.011Z,5.60
2023-02-22T09:51:49.403Z,5.63
2023-02-22T09:54:18.931Z,3.17
2023-02-22T09:56:47.206Z,5.30
2023-02-22T09:59:18.823Z,2.90
2023-02-22T10:01:47.650Z,6.82
2023-02-22T10:04:19.654Z,3.72
2023-02-22T10:07:06.282Z,7.55
2023-02-22T10:09:37.676Z,2.40
2023-02-22T10:12:12.833Z,2.85
2023-02-22T10:14:53.511Z,6.60
2023-02-22T10:17:19.965Z,3.00
2023-02-22T10:19:55.263Z,4.40
2023-02-22T10:22:27.725Z,2.97
2023-02-22T10:25:04.884Z,4.35
2023-02-22T10:27:42.740Z,8.35
2023-02-22T10:30:23.866Z,3.58
2023-02-22T10:32:55.357Z,6.90
2023-02-22T10:35:27.716Z,2.70
2023-02-22T10:37:59.523Z,4.75
2023-02-22T10:40:32.273Z,3.13
2023-02-22T10:43:06.329Z,6.07
2023-02-22T10:45:33.850Z,5.90
2023-02-22T10:48:02.003Z,6.05
2023-02-22T10:50:29.758Z,5.28
2023-02-22T10:52:56.399Z,5.65
2023-02-22T10:55:22.923Z,13.95
2023-02-22T10:57:51.638Z,9.48
2023-02-22T11:00:21.146Z,3.25
2023-02-22T11:02:55.145Z,10.77
2023-02-22T11:05:29.822Z,4.45
2023-02-22T11:08:33.222Z,4.70
2023-02-22T11:11:04.887Z,9.30
2023-02-22T11:13:37.750Z,7.07
2023-02-22T11:16:21.158Z,4.83
2023-02-22T11:18:47.878Z,7.28
2023-02-22T11:21:20.917Z,4.47
2023-02-22T11:23:47.426Z,4.25
2023-02-22T11:26:15.290Z,6.63
2023-02-22T11:28:49.731Z,3.70
2023-02-22T11:31:39.054Z,9.38
2023-02-22T11:34:05.627Z,5.97
2023-02-22T11:36:37.959Z,4.53
2023-02-22T11:39:06.286Z,11.52
2023-02-22T11:41:36.618Z,7.60
2023-02-22T11:44:14.117Z,5.85
2023-02-22T11:46:41.514Z,9.48
2023-02-22T11:49:10.318Z,7.40
2023-02-22T11:51:48.895Z,14.07
2023-02-22T11:54:33.984Z,11.15
2023-02-22T11:57:08.549Z,5.55
2023-02-22T11:59:38.420Z,8.20
2023-02-22T12:02:23.677Z,11.18
2023-02-22T12:05:08.954Z,5.53
2023-02-22T12:07:38.272Z,7.45
2023-02-22T12:10:23.342Z,5.60
2023-02-22T12:12:55.680Z,10.15
2023-02-22T12:15:34.394Z,6.32
2023-02-22T12:18:30.279Z,6.57
2023-02-22T12:21:06.486Z,10.23
2023-02-22T12:23:45.006Z,4.07
2023-02-22T12:26:16.667Z,5.57
2023-02-22T12:28:49.355Z,5.53
2023-02-22T12:31:20.253Z,6.47
2023-02-22T12:33:50.515Z,7.05
2023-02-22T12:36:19.332Z,6.05
2023-02-22T12:38:48.804Z,6.97
2023-02-22T12:41:20.717Z,5.82
2023-02-22T12:43:47.294Z,5.25
2023-02-22T12:46:19.005Z,5.20
2023-02-22T12:49:00.864Z,4.47
2023-02-22T12:51:33.616Z,7.05
2023-02-22T12:54:03.222Z,2.85
2023-02-22T12:56:37.527Z,4.68
2023-02-22T12:59:10.228Z,5.90
2023-02-22T13:01:39.294Z,4.72
2023-02-22T13:04:20.138Z,8.32
2023-02-22T13:06:59.716Z,5.18
2023-02-22T13:09:35.171Z,5.40
2023-02-22T13:12:04.642Z,6.65
2023-02-22T13:14:40.345Z,8.45
2023-02-22T13:17:21.895Z,5.78
2023-02-22T13:19:52.778Z,6.60
2023-02-22T13:22:24.492Z,7.82
2023-02-22T13:24:58.547Z,7.15
2023-02-22T13:27:33.017Z,3.00
2023-02-22T13:30:01.460Z,5.68
2023-02-22T13:32:45.352Z,8.30
2023-02-22T13:35:35.148Z,7.25
2023-02-22T13:38:01.603Z,4.28
2023-02-22T13:40:30.928Z,14.77
2023-02-22T13:43:06.708Z,7.47
2023-02-22T13:46:00.282Z,6.63
2023-02-22T13:48:45.535Z,7.03
2023-02-22T13:51:31.016Z,4.45
2023-02-22T13:54:09.416Z,6.97
2023-02-22T13:56:36.213Z,4.45
2023-02-22T13:59:04.108Z,8.13
2023-02-22T14:01:40.879Z,7.57
2023-02-22T14:04:22.473Z,7.72
2023-02-22T14:06:49.482Z,6.95
2023-02-22T14:09:20.092Z,4.15
2023-02-22T14:11:47.619Z,3.58
2023-02-22T14:14:17.238Z,5.18
2023-02-22T14:16:44.005Z,9.55
2023-02-22T14:19:13.490Z,4.57
2023-02-22T14:22:07.262Z,2.92
2023-02-22T14:24:44.770Z,4.07
2023-02-22T14:27:11.634Z,5.15
2023-02-22T14:29:38.366Z,5.15
2023-02-22T14:32:10.730Z,6.78
2023-02-22T14:34:43.161Z,5.63
2023-02-22T14:37:14.246Z,4.60
2023-02-22T14:39:43.611Z,4.00
2023-02-22T14:42:28.254Z,3.17
2023-02-22T14:45:10.443Z,4.28
2023-02-22T14:47:50.109Z,5.80
2023-02-22T14:50:23.289Z,1.65
2023-02-22T14:53:01.800Z,4.10
2023-02-22T14:55:30.096Z,5.25
2023-02-22T14:58:08.949Z,3.97
2023-02-22T15:00:38.612Z,1.08
2023-02-22T15:03:05.160Z,3.58
2023-02-22T15:05:38.483Z,2.22
2023-02-22T15:08:06.335Z,3.72
2023-02-22T15:10:43.054Z,4.47
2023-02-22T15:13:23.944Z,1.67
2023-02-22T15:16:02.132Z,3.03
2023-02-22T15:18:34.936Z,5.70
2023-02-22T15:21:07.228Z,2.67
2023-02-22T15:23:41.708Z,3.78
2023-02-22T15:26:08.882Z,4.50
2023-02-22T15:28:38.500Z,6.32
2023-02-22T15:31:34.723Z,7.18
2023-02-22T15:34:18.984Z,5.25
2023-02-22T15:36:47.447Z,4.10
2023-02-22T15:39:20.135Z,1.63
2023-02-22T15:41:46.769Z,1.48
2023-02-22T15:44:23.380Z,1.02
2023-02-22T15:46:51.084Z,3.17
2023-02-22T15:49:19.846Z,2.88
2023-02-22T15:51:49.256Z,2.35
2023-02-22T15:54:26.626Z,3.88
2023-02-22T15:56:57.656Z,5.60
2023-02-22T15:59:33.337Z,4.25
2023-02-22T16:02:00.071Z,3.60
2023-02-22T16:04:29.520Z,6.35
2023-02-22T16:07:08.203Z,7.20
2023-02-22T16:09:34.798Z,4.70
2023-02-22T16:12:12.083Z,7.32
2023-02-22T16:14:38.532Z,7.30
2023-02-22T16:17:13.198Z,8.35
2023-02-22T16:19:42.635Z,8.35
2023-02-22T16:22:23.401Z,5.15
2023-02-22T16:24:52.312Z,7.95
2023-02-22T16:27:20.135Z,7.97
2023-02-22T16:30:07.778Z,7.55
2023-02-22T16:32:36.588Z,7.97
2023-02-22T16:35:03.310Z,5.95
2023-02-22T16:37:29.922Z,11.05
2023-02-22T16:39:56.873Z,8.55
2023-02-22T16:42:26.078Z,4.80
2023-02-22T16:44:53.204Z,10.77
2023-02-22T16:47:20.050Z,10.60
2023-02-22T16:49:52.952Z,6.57
2023-02-22T16:52:20.504Z,7.70
2023-02-22T16:54:47.323Z,9.65
2023-02-22T16:57:18.952Z,5.90
2023-02-22T16:59:47.997Z,9.85
2023-02-22T17:02:15.439Z,12.15
2023-02-22T17:04:43.985Z,11.02
2023-02-22T17:07:10.535Z,10.73
2023-02-22T17:09:39.562Z,12.07
2023-02-22T17:12:06.356Z,8.45
2023-02-22T17:14:35.001Z,6.47
2023-02-22T17:17:01.608Z,13.48
2023-02-22T17:19:28.073Z,7.35
2023-02-22T17:21:54.525Z,11.98
2023-02-22T17:24:23.044Z,15.30
2023-02-22T17:26:49.785Z,8.93
2023-02-22T17:29:17.829Z,9.93
2023-02-22T17:31:44.939Z,13.05
2023-02-22T17:34:11.493Z,10.98
2023-02-22T17:36:37.994Z,10.80
2023-02-22T17:39:05.197Z,12.00
2023-02-22T17:41:31.649Z,12.82
2023-02-22T17:43:58.209Z,15.32
2023-02-22T17:46:25.464Z,18.80
2023-02-22T17:48:54.937Z,12.45
2023-02-22T17:51:22.660Z,9.45
2023-02-22T17:53:49.120Z,9.00
2023-02-22T17:56:19.622Z,9.23
2023-02-22T17:58:50.427Z,6.38
2023-02-22T18:01:27.126Z,8.35
2023-02-22T18:03:58.826Z,8.18
2023-02-22T18:06:27.310Z,4.85
2023-02-22T18:08:56.360Z,13.85
2023-02-22T18:11:26.494Z,6.47
2023-02-22T18:13:57.434Z,7.28
2023-02-22T18:16:26.140Z,10.70
2023-02-22T18:18:53.117Z,13.50
2023-02-22T18:21:19.576Z,8.35
2023-02-22T18:23:46.176Z,13.40
2023-02-22T18:26:19.964Z,9.60
2023-02-22T18:31:16.163Z,9.73
2023-02-22T18:33:43.345Z,8.63
2023-02-22T18:36:11.503Z,6.45
2023-02-22T18:38:42.772Z,9.27
2023-02-22T18:41:10.437Z,6.85
2023-02-22T18:43:37.258Z,7.40
2023-02-22T18:46:10.111Z,12.25
2023-02-22T18:48:37.146Z,13.37
2023-02-22T18:51:06.011Z,18.83
2023-02-22T18:53:33.521Z,14.02
2023-02-22T18:56:03.887Z,8.98
2023-02-22T18:58:32.849Z,12.75
2023-02-22T19:01:02.636Z,9.50
2023-02-22T19:03:29.815Z,13.70
2023-02-22T19:06:01.226Z,11.60
2023-02-22T19:08:28.580Z,11.13
2023-02-22T19:10:55.096Z,6.85
2023-02-22T19:13:21.644Z,7.75
2023-02-22T19:15:49.075Z,14.38
2023-02-22T19:18:15.767Z,13.90
2023-02-22T19:20:42.358Z,17.40
2023-02-22T19:23:10.523Z,8.27
2023-02-22T19:25:40.401Z,8.55
2023-02-22T19:28:06.976Z,12.27
2023-02-22T19:30:33.431Z,16.55
2023-02-22T19:33:02.597Z,11.45
2023-02-22T19:35:29.894Z,12.43
2023-02-22T19:37:56.349Z,15.02
2023-02-22T19:40:23.301Z,10.95
2023-02-22T19:42:54.644Z,9.55
2023-02-22T19:45:21.715Z,11.20
2023-02-22T19:47:48.781Z,7.70
2023-02-22T19:50:16.330Z,3.90
2023-02-22T19:52:42.840Z,7.43
2023-02-22T19:55:12.796Z,7.85
2023-02-22T19:57:40.641Z,8.05
2023-02-22T20:00:11.235Z,8.25
2023-02-22T20:02:39.496Z,10.63
2023-02-22T20:05:13.223Z,7.82
2023-02-22T20:10:07.232Z,9.45
2023-02-22T20:12:33.721Z,12.95
2023-02-22T20:15:00.405Z,12.15
2023-02-22T20:17:27.482Z,12.05
2023-02-22T20:19:53.967Z,9.40
2023-02-22T20:22:20.973Z,12.27
2023-02-22T20:24:48.319Z,7.97
2023-02-22T20:27:15.307Z,6.63
2023-02-22T20:29:41.998Z,19.88
2023-02-22T20:32:10.535Z,10.88
2023-02-22T20:34:37.128Z,13.70
2023-02-22T20:37:04.889Z,5.15
2023-02-22T20:39:31.435Z,13.18
2023-02-22T20:42:00.771Z,9.65
2023-02-22T20:44:27.938Z,8.50
2023-02-22T20:46:54.752Z,7.78
2023-02-22T20:49:21.578Z,5.45
2023-02-22T20:51:48.888Z,8.43
2023-02-22T20:54:16.042Z,5.18
2023-02-22T20:56:43.951Z,7.38
2023-02-22T20:59:11.935Z,7.25
2023-02-22T21:01:38.687Z,6.65
2023-02-22T21:04:06.689Z,6.10
2023-02-22T21:06:35.410Z,13.35
2023-02-22T21:09:05.597Z,10.02
2023-02-22T21:11:32.189Z,7.70
2023-02-22T21:13:59.342Z,12.07
2023-02-22T21:16:29.905Z,9.30
2023-02-22T21:18:58.758Z,10.68
2023-02-22T21:21:27.318Z,12.77
2023-02-22T21:23:56.106Z,10.30
2023-02-22T21:26:23.817Z,9.82
2023-02-22T21:28:51.835Z,9.05
2023-02-22T21:31:20.016Z,10.93
2023-02-22T21:33:48.601Z,9.65
2023-02-22T21:36:15.684Z,12.80
2023-02-22T21:38:43.708Z,8.98
2023-02-22T21:41:11.415Z,7.13
2023-02-22T21:43:37.987Z,12.38
2023-02-22T21:46:05.235Z,17.20
2023-02-22T21:48:31.921Z,10.52
2023-02-22T21:50:58.437Z,14.95
2023-02-22T21:53:25.082Z,10.07
2023-02-22T21:55:53.555Z,12.90
2023-02-22T21:58:20.499Z,9.68
2023-02-22T22:00:47.042Z,6.97
2023-02-22T22:03:20.340Z,5.28
2023-02-22T22:05:49.829Z,15.90
2023-02-22T22:08:27.564Z,7.28
2023-02-22T22:10:57.631Z,11.85
2023-02-22T22:13:28.357Z,14.32
2023-02-22T22:15:54.948Z,8.23
2023-02-22T22:18:21.701Z,7.07
2023-02-22T22:20:51.684Z,8.05
2023-02-22T22:23:18.165Z,9.10
2023-02-22T22:25:44.635Z,8.23
2023-02-22T22:28:11.437Z,7.57
2023-02-22T22:30:38.005Z,7.72
2023-02-22T22:33:05.738Z,9.23
2023-02-22T22:35:33.618Z,15.52
2023-02-22T22:38:01.022Z,15.15
2023-02-22T22:40:27.983Z,10.88
2023-02-22T22:42:54.452Z,9.50
2023-02-22T22:45:21.083Z,12.02
2023-02-22T22:47:48.306Z,12.35
2023-02-22T22:50:15.451Z,11.65
2023-02-22T22:52:42.149Z,8.13
2023-02-22T22:55:12.102Z,11.27
2023-02-22T22:57:39.756Z,6.47
2023-02-22T23:00:26.790Z,10.93
2023-02-22T23:02:56.285Z,9.82
2023-02-22T23:05:27.856Z,8.38
2023-02-22T23:07:56.288Z,9.70
2023-02-22T23:10:29.379Z,12.63
2023-02-22T23:12:58.814Z,10.00
2023-02-22T23:15:25.406Z,11.32
2023-02-22T23:17:56.110Z,9.50
2023-02-22T23:20:26.258Z,11.50
2023-02-22T23:22:53.307Z,12.95
2023-02-22T23:25:20.664Z,6.25
2023-02-22T23:27:47.362Z,17.25
2023-02-22T23:30:15.036Z,10.85
2023-02-22T23:32:46.599Z,9.55
2023-02-22T23:35:14.155Z,13.82
2023-02-22T23:37:40.670Z,8.43
2023-02-22T23:40:17.163Z,11.52
2023-02-22T23:42:47.503Z,9.30
2023-02-22T23:45:22.807Z,17.60
2023-02-22T23:47:56.656Z,12.95
2023-02-22T23:52:50.899Z,8.63
2023-02-22T23:55:20.819Z,4.20
2023-02-22T23:57:47.813Z,9.35
